Hovedside
METAR-TAF:

METAR-TAF

Lufthavner :

Kuwait, Kuwait

breddegrad: 29-13N, lengdegrad: 047-59E, høyde over havet: 55 m

Gjeldene værobservasjon

Denne rapporten ble laget for 49 minutter siden, klokken 17:00 UTC
Flau vind
Temperatur 15°C
Luftfuktighet 77%
Trykk 1021 hPa
Sikt 10 km eller mer
ingen skyer under 1500 m og ingen bygeskyer

METAR: OKBK 121700Z 00000KT CAVOK 15/11 Q1021 NOSIG

Tid: 20:49 (17:49 UTC)

Varsel

Denne rapporten ble laget for 1 time og 4 minutter siden, klokken 16:45 UTC
Varsel gyldig fra 12. klokken 18 UTC til 13. klokken 24 UTC
Vind 3 kt fra skiftende retning
Sikt: 8000 m
Skyfri himmel
Midlertidig
fra 13. klokken 01 UTC til 13. klokken 04 UTC
Sikt: 4000 m
dis

TAF: OKBK 121645Z 1218/1324 VRB03KT 8000 SKC TEMPO 1301/1304 4000 BR

Værobservasjoner og værvarsel for over 4000 flyplasser (METAR- og TAF-rapporter).

Tilgjengelige stasjoner er representert av de røde og gule prikkene på kartet.

Hold musepekeren over prikken for å se navnet på stasjonen.

Klikk så for å se værobservasjoner og -varsler.

For å forandre kartet kan du klikke på den grønne knappen med svart kryss for å zoome inn, på den grønne knappen med strek for å zoome ut, eller på de grønne pilene for å se tilstøtende kart.


METAR-TAF: